sensor_id;sensor_type;location;lat;lon;timestamp;P1;durP1;ratioP1;P2;durP2;ratioP2
44508;SDS011;30214;52.246;14.408;2022-10-16T00:01:10;7.07;;;3.53;;
44508;SDS011;30214;52.246;14.408;2022-10-16T00:03:40;7.32;;;3.80;;
44508;SDS011;30214;52.246;14.408;2022-10-16T00:06:09;7.43;;;3.78;;
44508;SDS011;30214;52.246;14.408;2022-10-16T00:08:37;7.55;;;3.75;;
44508;SDS011;30214;52.246;14.408;2022-10-16T00:11:06;5.82;;;3.30;;
44508;SDS011;30214;52.246;14.408;2022-10-16T00:13:36;7.05;;;3.85;;
44508;SDS011;30214;52.246;14.408;2022-10-16T00:16:05;5.53;;;3.97;;
44508;SDS011;30214;52.246;14.408;2022-10-16T00:18:35;3.83;;;2.80;;
44508;SDS011;30214;52.246;14.408;2022-10-16T00:21:03;11.68;;;4.00;;
44508;SDS011;30214;52.246;14.408;2022-10-16T00:23:32;5.03;;;3.20;;
44508;SDS011;30214;52.246;14.408;2022-10-16T00:26:02;5.20;;;3.58;;
44508;SDS011;30214;52.246;14.408;2022-10-16T00:28:33;4.30;;;3.20;;
44508;SDS011;30214;52.246;14.408;2022-10-16T00:31:02;6.32;;;3.42;;
44508;SDS011;30214;52.246;14.408;2022-10-16T00:33:30;4.28;;;3.40;;
44508;SDS011;30214;52.246;14.408;2022-10-16T00:35:59;6.80;;;3.35;;
44508;SDS011;30214;52.246;14.408;2022-10-16T00:38:26;5.57;;;3.03;;
44508;SDS011;30214;52.246;14.408;2022-10-16T00:40:54;5.90;;;3.40;;
44508;SDS011;30214;52.246;14.408;2022-10-16T00:43:35;5.63;;;3.50;;
44508;SDS011;30214;52.246;14.408;2022-10-16T00:46:08;5.95;;;3.28;;
44508;SDS011;30214;52.246;14.408;2022-10-16T00:48:40;4.85;;;3.05;;
44508;SDS011;30214;52.246;14.408;2022-10-16T00:51:13;4.82;;;3.03;;
44508;SDS011;30214;52.246;14.408;2022-10-16T00:53:40;4.03;;;3.10;;
44508;SDS011;30214;52.246;14.408;2022-10-16T00:56:08;7.20;;;3.38;;
44508;SDS011;30214;52.246;14.408;2022-10-16T00:58:35;6.45;;;3.35;;
44508;SDS011;30214;52.246;14.408;2022-10-16T01:01:02;4.22;;;2.92;;
44508;SDS011;30214;52.246;14.408;2022-10-16T01:03:31;7.05;;;3.00;;
44508;SDS011;30214;52.246;14.408;2022-10-16T01:06:07;4.43;;;3.30;;
44508;SDS011;30214;52.246;14.408;2022-10-16T01:08:57;6.57;;;3.00;;
44508;SDS011;30214;52.246;14.408;2022-10-16T01:11:38;5.35;;;3.03;;
44508;SDS011;30214;52.246;14.408;2022-10-16T01:14:14;6.47;;;3.13;;
44508;SDS011;30214;52.246;14.408;2022-10-16T01:16:49;4.00;;;3.13;;
44508;SDS011;30214;52.246;14.408;2022-10-16T01:22:12;4.78;;;3.00;;
44508;SDS011;30214;52.246;14.408;2022-10-16T01:24:40;4.53;;;3.28;;
44508;SDS011;30214;52.246;14.408;2022-10-16T01:27:13;5.03;;;3.13;;
44508;SDS011;30214;52.246;14.408;2022-10-16T01:29:48;5.15;;;2.97;;
44508;SDS011;30214;52.246;14.408;2022-10-16T01:32:22;5.60;;;3.40;;
44508;SDS011;30214;52.246;14.408;2022-10-16T01:34:58;5.43;;;2.97;;
44508;SDS011;30214;52.246;14.408;2022-10-16T01:37:32;4.85;;;2.95;;
44508;SDS011;30214;52.246;14.408;2022-10-16T01:40:06;4.40;;;3.00;;
44508;SDS011;30214;52.246;14.408;2022-10-16T01:42:39;3.78;;;2.78;;
44508;SDS011;30214;52.246;14.408;2022-10-16T01:45:11;7.45;;;3.10;;
44508;SDS011;30214;52.246;14.408;2022-10-16T01:47:43;6.57;;;3.20;;
44508;SDS011;30214;52.246;14.408;2022-10-16T01:50:12;5.60;;;2.90;;
44508;SDS011;30214;52.246;14.408;2022-10-16T01:52:44;3.92;;;2.88;;
44508;SDS011;30214;52.246;14.408;2022-10-16T01:55:17;4.47;;;3.10;;
44508;SDS011;30214;52.246;14.408;2022-10-16T01:57:50;5.95;;;3.08;;
44508;SDS011;30214;52.246;14.408;2022-10-16T02:00:19;6.55;;;2.97;;
44508;SDS011;30214;52.246;14.408;2022-10-16T02:02:49;3.80;;;2.78;;
44508;SDS011;30214;52.246;14.408;2022-10-16T02:05:21;5.68;;;3.08;;
44508;SDS011;30214;52.246;14.408;2022-10-16T02:07:54;5.28;;;3.05;;
44508;SDS011;30214;52.246;14.408;2022-10-16T02:10:21;4.88;;;2.55;;
44508;SDS011;30214;52.246;14.408;2022-10-16T02:12:53;5.70;;;3.45;;
44508;SDS011;30214;52.246;14.408;2022-10-16T02:15:27;5.28;;;2.65;;
44508;SDS011;30214;52.246;14.408;2022-10-16T02:17:54;4.35;;;2.95;;
44508;SDS011;30214;52.246;14.408;2022-10-16T02:20:23;4.90;;;2.58;;
44508;SDS011;30214;52.246;14.408;2022-10-16T02:22:54;3.38;;;2.22;;
44508;SDS011;30214;52.246;14.408;2022-10-16T02:25:24;4.20;;;2.58;;
44508;SDS011;30214;52.246;14.408;2022-10-16T02:27:59;4.90;;;2.75;;
44508;SDS011;30214;52.246;14.408;2022-10-16T02:30:32;7.60;;;2.88;;
44508;SDS011;30214;52.246;14.408;2022-10-16T02:33:03;8.07;;;2.55;;
44508;SDS011;30214;52.246;14.408;2022-10-16T02:35:34;3.53;;;2.63;;
44508;SDS011;30214;52.246;14.408;2022-10-16T02:38:03;4.05;;;3.03;;
44508;SDS011;30214;52.246;14.408;2022-10-16T02:40:32;3.75;;;2.50;;
44508;SDS011;30214;52.246;14.408;2022-10-16T02:43:02;7.85;;;2.53;;
44508;SDS011;30214;52.246;14.408;2022-10-16T02:45:31;4.50;;;2.33;;
44508;SDS011;30214;52.246;14.408;2022-10-16T02:47:58;3.50;;;2.45;;
44508;SDS011;30214;52.246;14.408;2022-10-16T02:50:26;3.60;;;2.13;;
44508;SDS011;30214;52.246;14.408;2022-10-16T02:52:53;4.25;;;2.10;;
44508;SDS011;30214;52.246;14.408;2022-10-16T02:55:20;3.70;;;2.20;;
44508;SDS011;30214;52.246;14.408;2022-10-16T02:57:47;4.70;;;2.20;;
44508;SDS011;30214;52.246;14.408;2022-10-16T03:00:16;3.72;;;2.35;;
44508;SDS011;30214;52.246;14.408;2022-10-16T03:02:44;3.00;;;2.10;;
44508;SDS011;30214;52.246;14.408;2022-10-16T03:05:11;4.20;;;2.20;;
44508;SDS011;30214;52.246;14.408;2022-10-16T03:07:39;4.13;;;2.17;;
44508;SDS011;30214;52.246;14.408;2022-10-16T03:10:06;3.70;;;2.30;;
44508;SDS011;30214;52.246;14.408;2022-10-16T03:12:34;4.80;;;2.20;;
44508;SDS011;30214;52.246;14.408;2022-10-16T03:15:02;3.03;;;2.03;;
44508;SDS011;30214;52.246;14.408;2022-10-16T03:17:32;3.25;;;2.08;;
44508;SDS011;30214;52.246;14.408;2022-10-16T03:19:59;3.33;;;1.95;;
44508;SDS011;30214;52.246;14.408;2022-10-16T03:22:27;4.38;;;2.20;;
44508;SDS011;30214;52.246;14.408;2022-10-16T03:24:54;4.65;;;2.13;;
44508;SDS011;30214;52.246;14.408;2022-10-16T03:27:21;4.15;;;2.40;;
44508;SDS011;30214;52.246;14.408;2022-10-16T03:29:48;4.50;;;2.15;;
44508;SDS011;30214;52.246;14.408;2022-10-16T03:32:15;3.38;;;2.00;;
44508;SDS011;30214;52.246;14.408;2022-10-16T03:34:44;3.75;;;2.17;;
44508;SDS011;30214;52.246;14.408;2022-10-16T03:37:12;6.05;;;2.40;;
44508;SDS011;30214;52.246;14.408;2022-10-16T03:39:39;3.00;;;2.00;;
44508;SDS011;30214;52.246;14.408;2022-10-16T03:42:06;4.72;;;2.00;;
44508;SDS011;30214;52.246;14.408;2022-10-16T03:44:33;3.70;;;1.95;;
44508;SDS011;30214;52.246;14.408;2022-10-16T03:47:00;3.08;;;2.00;;
44508;SDS011;30214;52.246;14.408;2022-10-16T03:49:27;3.83;;;2.00;;
44508;SDS011;30214;52.246;14.408;2022-10-16T03:51:56;4.82;;;2.08;;
44508;SDS011;30214;52.246;14.408;2022-10-16T03:54:23;3.03;;;2.13;;
44508;SDS011;30214;52.246;14.408;2022-10-16T03:56:50;6.18;;;2.30;;
44508;SDS011;30214;52.246;14.408;2022-10-16T03:59:17;4.80;;;2.40;;
44508;SDS011;30214;52.246;14.408;2022-10-16T04:01:44;3.00;;;1.92;;
44508;SDS011;30214;52.246;14.408;2022-10-16T04:04:11;7.82;;;2.20;;
44508;SDS011;30214;52.246;14.408;2022-10-16T04:06:38;2.97;;;2.00;;
44508;SDS011;30214;52.246;14.408;2022-10-16T04:09:07;4.75;;;2.30;;
44508;SDS011;30214;52.246;14.408;2022-10-16T04:11:34;3.88;;;2.00;;
44508;SDS011;30214;52.246;14.408;2022-10-16T04:14:01;3.72;;;2.30;;
44508;SDS011;30214;52.246;14.408;2022-10-16T04:16:28;3.83;;;2.00;;
44508;SDS011;30214;52.246;14.408;2022-10-16T04:18:55;3.30;;;1.92;;
44508;SDS011;30214;52.246;14.408;2022-10-16T04:21:22;5.25;;;2.40;;
44508;SDS011;30214;52.246;14.408;2022-10-16T04:23:49;3.92;;;2.10;;
44508;SDS011;30214;52.246;14.408;2022-10-16T04:26:18;3.75;;;2.22;;
44508;SDS011;30214;52.246;14.408;2022-10-16T04:28:45;4.28;;;2.20;;
44508;SDS011;30214;52.246;14.408;2022-10-16T04:31:12;3.55;;;2.33;;
44508;SDS011;30214;52.246;14.408;2022-10-16T04:33:41;4.93;;;2.22;;
44508;SDS011;30214;52.246;14.408;2022-10-16T04:36:08;3.85;;;2.30;;
44508;SDS011;30214;52.246;14.408;2022-10-16T04:38:35;16.02;;;2.58;;
44508;SDS011;30214;52.246;14.408;2022-10-16T04:41:04;6.85;;;2.28;;
44508;SDS011;30214;52.246;14.408;2022-10-16T04:43:33;4.25;;;2.25;;
44508;SDS011;30214;52.246;14.408;2022-10-16T04:46:01;3.63;;;2.30;;
44508;SDS011;30214;52.246;14.408;2022-10-16T04:48:29;4.20;;;2.47;;
44508;SDS011;30214;52.246;14.408;2022-10-16T04:50:56;3.58;;;2.47;;
44508;SDS011;30214;52.246;14.408;2022-10-16T04:53:23;4.75;;;2.35;;
44508;SDS011;30214;52.246;14.408;2022-10-16T04:55:51;3.33;;;2.20;;
44508;SDS011;30214;52.246;14.408;2022-10-16T04:58:18;5.72;;;2.40;;
44508;SDS011;30214;52.246;14.408;2022-10-16T05:00:46;6.10;;;2.20;;
44508;SDS011;30214;52.246;14.408;2022-10-16T05:03:13;5.30;;;2.17;;
44508;SDS011;30214;52.246;14.408;2022-10-16T05:05:42;3.22;;;2.13;;
44508;SDS011;30214;52.246;14.408;2022-10-16T05:08:09;4.75;;;2.15;;
44508;SDS011;30214;52.246;14.408;2022-10-16T05:10:40;3.85;;;2.50;;
44508;SDS011;30214;52.246;14.408;2022-10-16T05:13:09;3.22;;;2.35;;
44508;SDS011;30214;52.246;14.408;2022-10-16T05:15:37;3.67;;;2.17;;
44508;SDS011;30214;52.246;14.408;2022-10-16T05:18:05;4.30;;;2.13;;
44508;SDS011;30214;52.246;14.408;2022-10-16T05:20:32;6.43;;;2.42;;
44508;SDS011;30214;52.246;14.408;2022-10-16T05:22:59;2.88;;;1.88;;
44508;SDS011;30214;52.246;14.408;2022-10-16T05:25:26;5.00;;;2.47;;
44508;SDS011;30214;52.246;14.408;2022-10-16T05:27:53;3.20;;;2.10;;
44508;SDS011;30214;52.246;14.408;2022-10-16T05:30:20;3.80;;;2.25;;
44508;SDS011;30214;52.246;14.408;2022-10-16T05:32:47;3.72;;;2.25;;
44508;SDS011;30214;52.246;14.408;2022-10-16T05:35:18;3.42;;;2.20;;
44508;SDS011;30214;52.246;14.408;2022-10-16T05:37:46;3.15;;;1.95;;
44508;SDS011;30214;52.246;14.408;2022-10-16T05:40:14;3.22;;;2.10;;
44508;SDS011;30214;52.246;14.408;2022-10-16T05:42:41;4.53;;;2.55;;
44508;SDS011;30214;52.246;14.408;2022-10-16T05:45:09;3.88;;;2.47;;
44508;SDS011;30214;52.246;14.408;2022-10-16T05:47:37;3.45;;;2.30;;
44508;SDS011;30214;52.246;14.408;2022-10-16T05:50:05;4.15;;;2.50;;
44508;SDS011;30214;52.246;14.408;2022-10-16T05:52:34;8.05;;;2.30;;
44508;SDS011;30214;52.246;14.408;2022-10-16T05:55:01;5.78;;;2.47;;
44508;SDS011;30214;52.246;14.408;2022-10-16T05:57:29;5.65;;;3.88;;
44508;SDS011;30214;52.246;14.408;2022-10-16T05:59:56;6.75;;;3.90;;
44508;SDS011;30214;52.246;14.408;2022-10-16T06:02:23;5.65;;;3.22;;
44508;SDS011;30214;52.246;14.408;2022-10-16T06:04:51;7.40;;;2.92;;
44508;SDS011;30214;52.246;14.408;2022-10-16T06:07:18;7.80;;;3.03;;
44508;SDS011;30214;52.246;14.408;2022-10-16T06:09:48;5.03;;;3.30;;
44508;SDS011;30214;52.246;14.408;2022-10-16T06:12:16;8.07;;;3.72;;
44508;SDS011;30214;52.246;14.408;2022-10-16T06:14:44;5.13;;;3.35;;
44508;SDS011;30214;52.246;14.408;2022-10-16T06:17:12;5.13;;;3.40;;
44508;SDS011;30214;52.246;14.408;2022-10-16T06:19:39;6.78;;;3.05;;
44508;SDS011;30214;52.246;14.408;2022-10-16T06:22:06;5.60;;;3.35;;
44508;SDS011;30214;52.246;14.408;2022-10-16T06:24:33;5.63;;;3.25;;
44508;SDS011;30214;52.246;14.408;2022-10-16T06:27:01;5.75;;;2.97;;
44508;SDS011;30214;52.246;14.408;2022-10-16T06:29:29;8.13;;;3.13;;
44508;SDS011;30214;52.246;14.408;2022-10-16T06:31:56;7.30;;;3.20;;
44508;SDS011;30214;52.246;14.408;2022-10-16T06:34:23;4.00;;;2.80;;
44508;SDS011;30214;52.246;14.408;2022-10-16T06:36:50;6.72;;;2.92;;
44508;SDS011;30214;52.246;14.408;2022-10-16T06:39:17;5.15;;;3.40;;
44508;SDS011;30214;52.246;14.408;2022-10-16T06:41:44;6.30;;;3.00;;
44508;SDS011;30214;52.246;14.408;2022-10-16T06:44:16;6.70;;;3.05;;
44508;SDS011;30214;52.246;14.408;2022-10-16T06:46:44;4.70;;;3.13;;
44508;SDS011;30214;52.246;14.408;2022-10-16T06:49:11;5.50;;;3.55;;
44508;SDS011;30214;52.246;14.408;2022-10-16T06:51:38;7.38;;;2.90;;
44508;SDS011;30214;52.246;14.408;2022-10-16T06:54:06;5.22;;;3.10;;
44508;SDS011;30214;52.246;14.408;2022-10-16T06:56:34;5.70;;;3.35;;
44508;SDS011;30214;52.246;14.408;2022-10-16T06:59:01;6.00;;;3.20;;
44508;SDS011;30214;52.246;14.408;2022-10-16T07:01:30;4.30;;;3.17;;
44508;SDS011;30214;52.246;14.408;2022-10-16T07:03:58;5.93;;;3.15;;
44508;SDS011;30214;52.246;14.408;2022-10-16T07:06:27;4.53;;;3.00;;
44508;SDS011;30214;52.246;14.408;2022-10-16T07:08:57;5.97;;;3.35;;
44508;SDS011;30214;52.246;14.408;2022-10-16T07:11:24;5.57;;;3.55;;
44508;SDS011;30214;52.246;14.408;2022-10-16T07:13:51;5.80;;;3.10;;
44508;SDS011;30214;52.246;14.408;2022-10-16T07:16:19;5.35;;;2.53;;
44508;SDS011;30214;52.246;14.408;2022-10-16T07:18:50;4.00;;;3.00;;
44508;SDS011;30214;52.246;14.408;2022-10-16T07:21:22;4.53;;;3.05;;
44508;SDS011;30214;52.246;14.408;2022-10-16T07:23:50;4.88;;;2.70;;
44508;SDS011;30214;52.246;14.408;2022-10-16T07:26:18;5.22;;;3.05;;
44508;SDS011;30214;52.246;14.408;2022-10-16T07:28:45;18.27;;;3.35;;
44508;SDS011;30214;52.246;14.408;2022-10-16T07:31:13;3.70;;;2.80;;
44508;SDS011;30214;52.246;14.408;2022-10-16T07:33:43;7.03;;;3.28;;
44508;SDS011;30214;52.246;14.408;2022-10-16T07:36:14;6.25;;;3.05;;
44508;SDS011;30214;52.246;14.408;2022-10-16T07:38:43;4.85;;;2.92;;
44508;SDS011;30214;52.246;14.408;2022-10-16T07:41:11;6.72;;;3.00;;
44508;SDS011;30214;52.246;14.408;2022-10-16T07:43:40;5.88;;;3.15;;
44508;SDS011;30214;52.246;14.408;2022-10-16T07:46:12;17.75;;;3.47;;
44508;SDS011;30214;52.246;14.408;2022-10-16T07:48:39;5.88;;;2.90;;
44508;SDS011;30214;52.246;14.408;2022-10-16T07:51:11;7.53;;;2.90;;
44508;SDS011;30214;52.246;14.408;2022-10-16T07:53:40;4.15;;;2.75;;
44508;SDS011;30214;52.246;14.408;2022-10-16T07:56:07;3.40;;;2.53;;
44508;SDS011;30214;52.246;14.408;2022-10-16T07:58:35;3.70;;;2.97;;
44508;SDS011;30214;52.246;14.408;2022-10-16T08:01:03;5.18;;;2.80;;
44508;SDS011;30214;52.246;14.408;2022-10-16T08:03:32;4.47;;;2.55;;
44508;SDS011;30214;52.246;14.408;2022-10-16T08:06:00;7.88;;;2.65;;
44508;SDS011;30214;52.246;14.408;2022-10-16T08:08:29;5.53;;;2.55;;
44508;SDS011;30214;52.246;14.408;2022-10-16T08:10:56;6.60;;;2.70;;
44508;SDS011;30214;52.246;14.408;2022-10-16T08:13:23;4.25;;;2.63;;
44508;SDS011;30214;52.246;14.408;2022-10-16T08:15:51;3.47;;;2.30;;
44508;SDS011;30214;52.246;14.408;2022-10-16T08:18:20;3.90;;;2.30;;
44508;SDS011;30214;52.246;14.408;2022-10-16T08:20:48;3.47;;;2.10;;
44508;SDS011;30214;52.246;14.408;2022-10-16T08:23:22;5.75;;;2.40;;
44508;SDS011;30214;52.246;14.408;2022-10-16T08:25:52;4.05;;;2.20;;
44508;SDS011;30214;52.246;14.408;2022-10-16T08:28:20;4.45;;;2.08;;
44508;SDS011;30214;52.246;14.408;2022-10-16T08:30:47;4.15;;;1.90;;
44508;SDS011;30214;52.246;14.408;2022-10-16T08:33:14;3.08;;;1.90;;
44508;SDS011;30214;52.246;14.408;2022-10-16T08:35:41;5.80;;;2.08;;
44508;SDS011;30214;52.246;14.408;2022-10-16T08:38:08;5.40;;;1.77;;
44508;SDS011;30214;52.246;14.408;2022-10-16T08:40:36;4.18;;;1.77;;
44508;SDS011;30214;52.246;14.408;2022-10-16T08:43:24;4.35;;;1.60;;
44508;SDS011;30214;52.246;14.408;2022-10-16T08:46:14;2.75;;;1.65;;
44508;SDS011;30214;52.246;14.408;2022-10-16T08:48:56;3.50;;;1.60;;
44508;SDS011;30214;52.246;14.408;2022-10-16T08:51:25;2.80;;;1.70;;
44508;SDS011;30214;52.246;14.408;2022-10-16T08:53:56;2.10;;;1.40;;
44508;SDS011;30214;52.246;14.408;2022-10-16T08:56:25;2.88;;;1.40;;
44508;SDS011;30214;52.246;14.408;2022-10-16T08:58:54;3.42;;;1.50;;
44508;SDS011;30214;52.246;14.408;2022-10-16T09:01:24;3.38;;;1.40;;
44508;SDS011;30214;52.246;14.408;2022-10-16T09:04:18;3.25;;;1.33;;
44508;SDS011;30214;52.246;14.408;2022-10-16T09:07:13;2.25;;;1.17;;
44508;SDS011;30214;52.246;14.408;2022-10-16T09:09:51;4.28;;;1.30;;
44508;SDS011;30214;52.246;14.408;2022-10-16T09:12:37;1.73;;;1.10;;
44508;SDS011;30214;52.246;14.408;2022-10-16T09:15:16;2.70;;;1.02;;
44508;SDS011;30214;52.246;14.408;2022-10-16T09:17:55;2.00;;;1.10;;
44508;SDS011;30214;52.246;14.408;2022-10-16T09:20:39;4.28;;;1.17;;
44508;SDS011;30214;52.246;14.408;2022-10-16T09:23:17;4.10;;;1.40;;
44508;SDS011;30214;52.246;14.408;2022-10-16T09:25:47;2.88;;;1.48;;
44508;SDS011;30214;52.246;14.408;2022-10-16T09:28:17;2.22;;;1.05;;
44508;SDS011;30214;52.246;14.408;2022-10-16T09:30:46;5.80;;;1.20;;
44508;SDS011;30214;52.246;14.408;2022-10-16T09:33:15;3.90;;;1.20;;
44508;SDS011;30214;52.246;14.408;2022-10-16T09:35:44;3.17;;;1.05;;
44508;SDS011;30214;52.246;14.408;2022-10-16T09:38:23;2.30;;;1.13;;
44508;SDS011;30214;52.246;14.408;2022-10-16T09:40:53;3.60;;;1.10;;
44508;SDS011;30214;52.246;14.408;2022-10-16T09:43:22;3.67;;;1.20;;
44508;SDS011;30214;52.246;14.408;2022-10-16T09:45:55;2.42;;;1.10;;
44508;SDS011;30214;52.246;14.408;2022-10-16T09:48:25;5.97;;;1.10;;
44508;SDS011;30214;52.246;14.408;2022-10-16T09:50:59;3.40;;;1.00;;
44508;SDS011;30214;52.246;14.408;2022-10-16T09:53:37;1.67;;;0.93;;
44508;SDS011;30214;52.246;14.408;2022-10-16T09:56:09;4.35;;;0.93;;
44508;SDS011;30214;52.246;14.408;2022-10-16T09:58:41;2.05;;;0.98;;
44508;SDS011;30214;52.246;14.408;2022-10-16T10:01:13;3.75;;;0.80;;
44508;SDS011;30214;52.246;14.408;2022-10-16T10:03:41;2.70;;;1.05;;
44508;SDS011;30214;52.246;14.408;2022-10-16T10:06:17;2.95;;;0.90;;
44508;SDS011;30214;52.246;14.408;2022-10-16T10:08:54;6.93;;;0.80;;
44508;SDS011;30214;52.246;14.408;2022-10-16T10:14:20;1.70;;;0.80;;
44508;SDS011;30214;52.246;14.408;2022-10-16T10:17:08;3.25;;;1.00;;
44508;SDS011;30214;52.246;14.408;2022-10-16T10:19:40;4.88;;;1.10;;
44508;SDS011;30214;52.246;14.408;2022-10-16T10:22:16;1.73;;;0.80;;
44508;SDS011;30214;52.246;14.408;2022-10-16T10:28:00;2.28;;;0.90;;
44508;SDS011;30214;52.246;14.408;2022-10-16T10:30:45;1.48;;;0.90;;
44508;SDS011;30214;52.246;14.408;2022-10-16T10:33:24;5.82;;;1.10;;
44508;SDS011;30214;52.246;14.408;2022-10-16T10:36:01;6.90;;;1.52;;
44508;SDS011;30214;52.246;14.408;2022-10-16T10:38:53;4.25;;;1.30;;
44508;SDS011;30214;52.246;14.408;2022-10-16T10:41:27;1.98;;;1.00;;
44508;SDS011;30214;52.246;14.408;2022-10-16T10:44:30;3.28;;;1.67;;
44508;SDS011;30214;52.246;14.408;2022-10-16T10:47:32;2.92;;;1.08;;
44508;SDS011;30214;52.246;14.408;2022-10-16T10:50:14;7.28;;;1.90;;
44508;SDS011;30214;52.246;14.408;2022-10-16T10:52:53;8.30;;;2.15;;
44508;SDS011;30214;52.246;14.408;2022-10-16T10:55:28;28.48;;;8.93;;
44508;SDS011;30214;52.246;14.408;2022-10-16T11:01:11;2.55;;;1.00;;
44508;SDS011;30214;52.246;14.408;2022-10-16T11:03:42;1.65;;;1.00;;
44508;SDS011;30214;52.246;14.408;2022-10-16T11:06:40;1.63;;;0.80;;
44508;SDS011;30214;52.246;14.408;2022-10-16T11:09:13;2.20;;;0.90;;
44508;SDS011;30214;52.246;14.408;2022-10-16T11:11:45;2.70;;;0.82;;
44508;SDS011;30214;52.246;14.408;2022-10-16T11:14:18;4.60;;;0.90;;
44508;SDS011;30214;52.246;14.408;2022-10-16T11:16:49;3.63;;;0.95;;
44508;SDS011;30214;52.246;14.408;2022-10-16T11:19:26;1.85;;;0.90;;
44508;SDS011;30214;52.246;14.408;2022-10-16T11:22:03;4.70;;;0.90;;
44508;SDS011;30214;52.246;14.408;2022-10-16T11:24:39;3.33;;;0.93;;
44508;SDS011;30214;52.246;14.408;2022-10-16T11:27:12;3.83;;;0.90;;
44508;SDS011;30214;52.246;14.408;2022-10-16T11:29:45;1.52;;;0.80;;
44508;SDS011;30214;52.246;14.408;2022-10-16T11:32:19;3.70;;;0.90;;
44508;SDS011;30214;52.246;14.408;2022-10-16T11:34:51;2.92;;;0.80;;
44508;SDS011;30214;52.246;14.408;2022-10-16T11:37:25;3.97;;;0.80;;
44508;SDS011;30214;52.246;14.408;2022-10-16T11:39:58;2.63;;;0.70;;
44508;SDS011;30214;52.246;14.408;2022-10-16T11:42:44;2.25;;;0.80;;
44508;SDS011;30214;52.246;14.408;2022-10-16T11:45:22;1.13;;;0.70;;
44508;SDS011;30214;52.246;14.408;2022-10-16T11:47:58;1.30;;;0.70;;
44508;SDS011;30214;52.246;14.408;2022-10-16T11:50:36;1.25;;;0.80;;
44508;SDS011;30214;52.246;14.408;2022-10-16T11:53:13;3.10;;;0.70;;
44508;SDS011;30214;52.246;14.408;2022-10-16T11:55:50;1.35;;;0.70;;
44508;SDS011;30214;52.246;14.408;2022-10-16T11:58:23;1.77;;;0.80;;
44508;SDS011;30214;52.246;14.408;2022-10-16T12:00:56;4.93;;;0.85;;
44508;SDS011;30214;52.246;14.408;2022-10-16T12:03:29;4.93;;;1.20;;
44508;SDS011;30214;52.246;14.408;2022-10-16T12:06:06;2.70;;;2.00;;
44508;SDS011;30214;52.246;14.408;2022-10-16T12:08:46;1.30;;;1.00;;
44508;SDS011;30214;52.246;14.408;2022-10-16T12:11:23;1.52;;;0.95;;
44508;SDS011;30214;52.246;14.408;2022-10-16T12:14:06;2.05;;;0.90;;
44508;SDS011;30214;52.246;14.408;2022-10-16T12:16:53;1.63;;;0.80;;
44508;SDS011;30214;52.246;14.408;2022-10-16T12:19:24;1.63;;;0.70;;
44508;SDS011;30214;52.246;14.408;2022-10-16T12:21:54;1.52;;;0.82;;
44508;SDS011;30214;52.246;14.408;2022-10-16T12:24:33;7.07;;;1.42;;
44508;SDS011;30214;52.246;14.408;2022-10-16T12:27:03;2.75;;;0.80;;
44508;SDS011;30214;52.246;14.408;2022-10-16T12:29:34;3.67;;;0.82;;
44508;SDS011;30214;52.246;14.408;2022-10-16T12:32:04;1.60;;;0.90;;
44508;SDS011;30214;52.246;14.408;2022-10-16T12:34:44;2.70;;;0.90;;
44508;SDS011;30214;52.246;14.408;2022-10-16T12:37:13;1.30;;;0.70;;
44508;SDS011;30214;52.246;14.408;2022-10-16T12:39:48;6.28;;;0.80;;
44508;SDS011;30214;52.246;14.408;2022-10-16T12:42:32;1.67;;;0.85;;
44508;SDS011;30214;52.246;14.408;2022-10-16T12:45:00;2.38;;;0.80;;
44508;SDS011;30214;52.246;14.408;2022-10-16T12:47:49;2.28;;;0.65;;
44508;SDS011;30214;52.246;14.408;2022-10-16T12:50:26;4.40;;;0.80;;
44508;SDS011;30214;52.246;14.408;2022-10-16T12:52:58;3.83;;;0.80;;
44508;SDS011;30214;52.246;14.408;2022-10-16T12:55:30;1.83;;;0.82;;
44508;SDS011;30214;52.246;14.408;2022-10-16T12:58:13;1.98;;;0.80;;
44508;SDS011;30214;52.246;14.408;2022-10-16T13:01:03;1.13;;;0.77;;
44508;SDS011;30214;52.246;14.408;2022-10-16T13:03:52;1.95;;;0.90;;
44508;SDS011;30214;52.246;14.408;2022-10-16T13:07:00;2.92;;;0.75;;
44508;SDS011;30214;52.246;14.408;2022-10-16T13:09:51;6.85;;;1.10;;
44508;SDS011;30214;52.246;14.408;2022-10-16T13:12:41;1.98;;;0.90;;
44508;SDS011;30214;52.246;14.408;2022-10-16T13:15:30;2.85;;;0.80;;
44508;SDS011;30214;52.246;14.408;2022-10-16T13:18:10;4.28;;;0.88;;
44508;SDS011;30214;52.246;14.408;2022-10-16T13:20:51;3.70;;;0.80;;
44508;SDS011;30214;52.246;14.408;2022-10-16T13:23:31;1.33;;;0.73;;
44508;SDS011;30214;52.246;14.408;2022-10-16T13:29:32;1.05;;;0.70;;
44508;SDS011;30214;52.246;14.408;2022-10-16T13:32:00;1.55;;;0.80;;
44508;SDS011;30214;52.246;14.408;2022-10-16T13:34:41;1.17;;;0.70;;
44508;SDS011;30214;52.246;14.408;2022-10-16T13:37:16;3.13;;;0.88;;
44508;SDS011;30214;52.246;14.408;2022-10-16T13:39:45;1.85;;;0.73;;
44508;SDS011;30214;52.246;14.408;2022-10-16T13:42:14;3.53;;;0.85;;
44508;SDS011;30214;52.246;14.408;2022-10-16T13:44:51;1.45;;;0.80;;
44508;SDS011;30214;52.246;14.408;2022-10-16T13:47:20;2.92;;;0.70;;
44508;SDS011;30214;52.246;14.408;2022-10-16T13:49:58;1.58;;;0.80;;
44508;SDS011;30214;52.246;14.408;2022-10-16T13:52:26;1.58;;;0.70;;
44508;SDS011;30214;52.246;14.408;2022-10-16T13:54:54;1.92;;;0.80;;
44508;SDS011;30214;52.246;14.408;2022-10-16T13:57:21;1.25;;;0.60;;
44508;SDS011;30214;52.246;14.408;2022-10-16T13:59:53;1.38;;;0.73;;
44508;SDS011;30214;52.246;14.408;2022-10-16T14:02:22;1.05;;;0.70;;
44508;SDS011;30214;52.246;14.408;2022-10-16T14:04:53;1.75;;;0.60;;
44508;SDS011;30214;52.246;14.408;2022-10-16T14:07:23;0.88;;;0.60;;
44508;SDS011;30214;52.246;14.408;2022-10-16T14:09:52;1.25;;;0.70;;
44508;SDS011;30214;52.246;14.408;2022-10-16T14:12:20;1.13;;;0.60;;
44508;SDS011;30214;52.246;14.408;2022-10-16T14:14:51;1.00;;;0.65;;
44508;SDS011;30214;52.246;14.408;2022-10-16T14:17:21;1.83;;;0.52;;
44508;SDS011;30214;52.246;14.408;2022-10-16T14:19:51;1.67;;;0.60;;
44508;SDS011;30214;52.246;14.408;2022-10-16T14:22:23;1.55;;;0.70;;
44508;SDS011;30214;52.246;14.408;2022-10-16T14:24:57;1.00;;;0.60;;
44508;SDS011;30214;52.246;14.408;2022-10-16T14:27:26;0.63;;;0.60;;
44508;SDS011;30214;52.246;14.408;2022-10-16T14:30:13;1.35;;;0.60;;
44508;SDS011;30214;52.246;14.408;2022-10-16T14:32:52;1.13;;;0.60;;
44508;SDS011;30214;52.246;14.408;2022-10-16T14:35:23;1.45;;;0.60;;
44508;SDS011;30214;52.246;14.408;2022-10-16T14:37:56;2.17;;;0.60;;
44508;SDS011;30214;52.246;14.408;2022-10-16T14:40:26;2.78;;;0.70;;
44508;SDS011;30214;52.246;14.408;2022-10-16T14:42:56;1.30;;;0.60;;
44508;SDS011;30214;52.246;14.408;2022-10-16T14:45:26;9.02;;;0.70;;
44508;SDS011;30214;52.246;14.408;2022-10-16T14:47:58;0.60;;;0.60;;
44508;SDS011;30214;52.246;14.408;2022-10-16T14:50:27;3.42;;;0.70;;
44508;SDS011;30214;52.246;14.408;2022-10-16T14:52:54;1.48;;;0.60;;
44508;SDS011;30214;52.246;14.408;2022-10-16T14:55:22;1.45;;;0.70;;
44508;SDS011;30214;52.246;14.408;2022-10-16T14:57:49;1.02;;;0.60;;
44508;SDS011;30214;52.246;14.408;2022-10-16T15:00:18;1.27;;;0.65;;
44508;SDS011;30214;52.246;14.408;2022-10-16T15:02:48;1.40;;;0.70;;
44508;SDS011;30214;52.246;14.408;2022-10-16T15:05:17;1.40;;;0.60;;
44508;SDS011;30214;52.246;14.408;2022-10-16T15:07:47;0.88;;;0.60;;
44508;SDS011;30214;52.246;14.408;2022-10-16T15:10:15;1.95;;;0.70;;
44508;SDS011;30214;52.246;14.408;2022-10-16T15:12:44;3.65;;;0.80;;
44508;SDS011;30214;52.246;14.408;2022-10-16T15:18:03;1.75;;;0.60;;